sensor_id;sensor_type;location;lat;lon;timestamp;P1;durP1;ratioP1;P2;durP2;ratioP2
32094;SDS011;18608;53.688;10.748;2023-01-08T00:02:15;2.10;;;2.00;;
32094;SDS011;18608;53.688;10.748;2023-01-08T00:04:41;2.30;;;2.20;;
32094;SDS011;18608;53.688;10.748;2023-01-08T00:07:07;3.20;;;1.97;;
32094;SDS011;18608;53.688;10.748;2023-01-08T00:09:33;2.80;;;2.40;;
32094;SDS011;18608;53.688;10.748;2023-01-08T00:11:59;2.60;;;2.40;;
32094;SDS011;18608;53.688;10.748;2023-01-08T00:14:24;2.73;;;2.53;;
32094;SDS011;18608;53.688;10.748;2023-01-08T00:16:50;3.40;;;2.63;;
32094;SDS011;18608;53.688;10.748;2023-01-08T00:19:15;2.57;;;2.37;;
32094;SDS011;18608;53.688;10.748;2023-01-08T00:21:41;3.50;;;2.63;;
32094;SDS011;18608;53.688;10.748;2023-01-08T00:24:07;3.00;;;2.80;;
32094;SDS011;18608;53.688;10.748;2023-01-08T00:26:32;2.57;;;2.37;;
32094;SDS011;18608;53.688;10.748;2023-01-08T00:28:58;2.50;;;2.40;;
32094;SDS011;18608;53.688;10.748;2023-01-08T00:31:24;2.50;;;2.40;;
32094;SDS011;18608;53.688;10.748;2023-01-08T00:33:49;4.47;;;2.17;;
32094;SDS011;18608;53.688;10.748;2023-01-08T00:36:16;2.67;;;2.37;;
32094;SDS011;18608;53.688;10.748;2023-01-08T00:38:43;2.57;;;2.47;;
32094;SDS011;18608;53.688;10.748;2023-01-08T00:41:10;4.50;;;2.37;;
32094;SDS011;18608;53.688;10.748;2023-01-08T00:43:37;4.80;;;2.80;;
32094;SDS011;18608;53.688;10.748;2023-01-08T00:46:04;3.17;;;2.87;;
32094;SDS011;18608;53.688;10.748;2023-01-08T00:48:30;3.00;;;2.53;;
32094;SDS011;18608;53.688;10.748;2023-01-08T00:50:57;2.87;;;2.67;;
32094;SDS011;18608;53.688;10.748;2023-01-08T00:53:26;3.90;;;3.60;;
32094;SDS011;18608;53.688;10.748;2023-01-08T00:55:58;3.57;;;3.27;;
32094;SDS011;18608;53.688;10.748;2023-01-08T00:58:27;2.50;;;2.30;;
32094;SDS011;18608;53.688;10.748;2023-01-08T01:00:53;2.30;;;2.20;;
32094;SDS011;18608;53.688;10.748;2023-01-08T01:03:19;3.43;;;3.23;;
32094;SDS011;18608;53.688;10.748;2023-01-08T01:05:45;2.73;;;2.53;;
32094;SDS011;18608;53.688;10.748;2023-01-08T01:08:10;2.30;;;2.20;;
32094;SDS011;18608;53.688;10.748;2023-01-08T01:10:37;3.07;;;2.70;;
32094;SDS011;18608;53.688;10.748;2023-01-08T01:13:03;2.93;;;2.70;;
32094;SDS011;18608;53.688;10.748;2023-01-08T01:15:29;2.70;;;2.50;;
32094;SDS011;18608;53.688;10.748;2023-01-08T01:17:54;5.53;;;3.60;;
32094;SDS011;18608;53.688;10.748;2023-01-08T01:20:20;2.63;;;2.43;;
32094;SDS011;18608;53.688;10.748;2023-01-08T01:22:47;3.10;;;2.90;;
32094;SDS011;18608;53.688;10.748;2023-01-08T01:25:13;3.57;;;2.90;;
32094;SDS011;18608;53.688;10.748;2023-01-08T01:27:39;2.80;;;2.70;;
32094;SDS011;18608;53.688;10.748;2023-01-08T01:30:05;2.50;;;2.30;;
32094;SDS011;18608;53.688;10.748;2023-01-08T01:32:32;2.47;;;2.30;;
32094;SDS011;18608;53.688;10.748;2023-01-08T01:34:57;3.50;;;3.20;;
32094;SDS011;18608;53.688;10.748;2023-01-08T01:37:23;2.93;;;2.57;;
32094;SDS011;18608;53.688;10.748;2023-01-08T01:39:49;3.20;;;2.90;;
32094;SDS011;18608;53.688;10.748;2023-01-08T01:42:16;5.10;;;2.90;;
32094;SDS011;18608;53.688;10.748;2023-01-08T01:45:02;3.77;;;3.47;;
32094;SDS011;18608;53.688;10.748;2023-01-08T01:47:35;3.27;;;2.77;;
32094;SDS011;18608;53.688;10.748;2023-01-08T01:52:56;3.50;;;3.30;;
32094;SDS011;18608;53.688;10.748;2023-01-08T01:55:32;3.87;;;2.83;;
32094;SDS011;18608;53.688;10.748;2023-01-08T02:01:00;6.73;;;2.73;;
32094;SDS011;18608;53.688;10.748;2023-01-08T02:03:31;3.37;;;3.07;;
32094;SDS011;18608;53.688;10.748;2023-01-08T02:11:09;2.87;;;2.67;;
32094;SDS011;18608;53.688;10.748;2023-01-08T02:13:42;3.17;;;2.97;;
32094;SDS011;18608;53.688;10.748;2023-01-08T02:16:17;2.73;;;2.53;;
32094;SDS011;18608;53.688;10.748;2023-01-08T02:18:57;3.80;;;3.50;;
32094;SDS011;18608;53.688;10.748;2023-01-08T02:27:04;3.23;;;2.83;;
32094;SDS011;18608;53.688;10.748;2023-01-08T02:29:32;3.07;;;2.77;;
32094;SDS011;18608;53.688;10.748;2023-01-08T02:31:59;3.33;;;3.03;;
32094;SDS011;18608;53.688;10.748;2023-01-08T02:34:25;3.27;;;3.07;;
32094;SDS011;18608;53.688;10.748;2023-01-08T02:36:53;4.50;;;3.77;;
32094;SDS011;18608;53.688;10.748;2023-01-08T02:42:11;3.10;;;2.70;;
32094;SDS011;18608;53.688;10.748;2023-01-08T02:45:09;2.80;;;2.40;;
32094;SDS011;18608;53.688;10.748;2023-01-08T02:47:38;3.07;;;2.83;;
32094;SDS011;18608;53.688;10.748;2023-01-08T02:52:47;5.83;;;3.90;;
32094;SDS011;18608;53.688;10.748;2023-01-08T02:55:19;3.30;;;3.00;;
32094;SDS011;18608;53.688;10.748;2023-01-08T02:57:47;2.87;;;2.70;;
32094;SDS011;18608;53.688;10.748;2023-01-08T03:00:13;2.80;;;2.60;;
32094;SDS011;18608;53.688;10.748;2023-01-08T03:02:39;4.53;;;2.73;;
32094;SDS011;18608;53.688;10.748;2023-01-08T03:05:14;3.73;;;3.43;;
32094;SDS011;18608;53.688;10.748;2023-01-08T03:07:48;3.80;;;3.27;;
32094;SDS011;18608;53.688;10.748;2023-01-08T03:10:14;2.97;;;2.77;;
32094;SDS011;18608;53.688;10.748;2023-01-08T03:12:50;3.77;;;3.43;;
32094;SDS011;18608;53.688;10.748;2023-01-08T03:15:24;5.67;;;2.90;;
32094;SDS011;18608;53.688;10.748;2023-01-08T03:17:56;3.17;;;2.87;;
32094;SDS011;18608;53.688;10.748;2023-01-08T03:20:26;2.80;;;2.60;;
32094;SDS011;18608;53.688;10.748;2023-01-08T03:22:54;3.20;;;3.00;;
32094;SDS011;18608;53.688;10.748;2023-01-08T03:25:24;3.70;;;3.00;;
32094;SDS011;18608;53.688;10.748;2023-01-08T03:28:00;3.67;;;3.37;;
32094;SDS011;18608;53.688;10.748;2023-01-08T03:30:29;4.07;;;3.30;;
32094;SDS011;18608;53.688;10.748;2023-01-08T03:32:55;3.47;;;3.20;;
32094;SDS011;18608;53.688;10.748;2023-01-08T03:35:24;4.13;;;3.33;;
32094;SDS011;18608;53.688;10.748;2023-01-08T03:37:53;2.60;;;2.40;;
32094;SDS011;18608;53.688;10.748;2023-01-08T03:40:28;3.43;;;3.13;;
32094;SDS011;18608;53.688;10.748;2023-01-08T03:42:59;3.20;;;3.00;;
32094;SDS011;18608;53.688;10.748;2023-01-08T03:45:24;2.80;;;2.60;;
32094;SDS011;18608;53.688;10.748;2023-01-08T03:47:54;3.00;;;2.80;;
32094;SDS011;18608;53.688;10.748;2023-01-08T03:50:22;3.10;;;2.90;;
32094;SDS011;18608;53.688;10.748;2023-01-08T03:52:51;3.27;;;2.97;;
32094;SDS011;18608;53.688;10.748;2023-01-08T03:55:16;3.27;;;3.07;;
32094;SDS011;18608;53.688;10.748;2023-01-08T03:57:42;3.67;;;3.37;;
32094;SDS011;18608;53.688;10.748;2023-01-08T04:00:08;3.70;;;3.30;;
32094;SDS011;18608;53.688;10.748;2023-01-08T04:02:34;5.00;;;3.40;;
32094;SDS011;18608;53.688;10.748;2023-01-08T04:05:00;5.63;;;3.17;;
32094;SDS011;18608;53.688;10.748;2023-01-08T04:07:26;6.30;;;3.70;;
32094;SDS011;18608;53.688;10.748;2023-01-08T04:09:51;3.53;;;2.80;;
32094;SDS011;18608;53.688;10.748;2023-01-08T04:12:17;3.00;;;2.90;;
32094;SDS011;18608;53.688;10.748;2023-01-08T04:14:43;3.30;;;3.00;;
32094;SDS011;18608;53.688;10.748;2023-01-08T04:17:11;3.23;;;2.93;;
32094;SDS011;18608;53.688;10.748;2023-01-08T04:19:37;3.13;;;2.80;;
32094;SDS011;18608;53.688;10.748;2023-01-08T04:22:03;3.43;;;3.13;;
32094;SDS011;18608;53.688;10.748;2023-01-08T04:24:29;3.30;;;3.00;;
32094;SDS011;18608;53.688;10.748;2023-01-08T04:26:54;3.00;;;2.77;;
32094;SDS011;18608;53.688;10.748;2023-01-08T04:29:20;4.27;;;3.73;;
32094;SDS011;18608;53.688;10.748;2023-01-08T04:31:45;3.03;;;2.83;;
32094;SDS011;18608;53.688;10.748;2023-01-08T04:34:11;2.87;;;2.67;;
32094;SDS011;18608;53.688;10.748;2023-01-08T04:36:37;3.93;;;3.63;;
32094;SDS011;18608;53.688;10.748;2023-01-08T04:39:02;3.67;;;3.37;;
32094;SDS011;18608;53.688;10.748;2023-01-08T04:41:28;4.73;;;3.30;;
32094;SDS011;18608;53.688;10.748;2023-01-08T04:43:54;3.90;;;3.50;;
32094;SDS011;18608;53.688;10.748;2023-01-08T04:46:20;3.43;;;3.20;;
32094;SDS011;18608;53.688;10.748;2023-01-08T04:48:45;6.43;;;4.07;;
32094;SDS011;18608;53.688;10.748;2023-01-08T04:51:11;3.73;;;3.10;;
32094;SDS011;18608;53.688;10.748;2023-01-08T04:53:36;4.20;;;3.07;;
32094;SDS011;18608;53.688;10.748;2023-01-08T04:56:07;4.93;;;3.67;;
32094;SDS011;18608;53.688;10.748;2023-01-08T04:58:34;3.13;;;2.83;;
32094;SDS011;18608;53.688;10.748;2023-01-08T05:01:08;3.63;;;3.33;;
32094;SDS011;18608;53.688;10.748;2023-01-08T05:03:37;3.40;;;3.10;;
32094;SDS011;18608;53.688;10.748;2023-01-08T05:06:04;4.13;;;3.70;;
32094;SDS011;18608;53.688;10.748;2023-01-08T05:08:30;3.40;;;3.10;;
32094;SDS011;18608;53.688;10.748;2023-01-08T05:11:00;3.30;;;3.03;;
32094;SDS011;18608;53.688;10.748;2023-01-08T05:13:25;3.43;;;3.10;;
32094;SDS011;18608;53.688;10.748;2023-01-08T05:15:51;3.93;;;3.50;;
32094;SDS011;18608;53.688;10.748;2023-01-08T05:18:17;5.67;;;3.83;;
32094;SDS011;18608;53.688;10.748;2023-01-08T05:20:43;3.87;;;3.50;;
32094;SDS011;18608;53.688;10.748;2023-01-08T05:23:08;3.67;;;3.33;;
32094;SDS011;18608;53.688;10.748;2023-01-08T05:25:34;4.20;;;3.50;;
32094;SDS011;18608;53.688;10.748;2023-01-08T05:27:59;3.90;;;3.57;;
32094;SDS011;18608;53.688;10.748;2023-01-08T05:30:25;2.90;;;2.70;;
32094;SDS011;18608;53.688;10.748;2023-01-08T05:32:51;3.40;;;3.10;;
32094;SDS011;18608;53.688;10.748;2023-01-08T05:35:17;4.47;;;3.90;;
32094;SDS011;18608;53.688;10.748;2023-01-08T05:37:42;10.60;;;3.80;;
32094;SDS011;18608;53.688;10.748;2023-01-08T05:40:08;3.43;;;3.23;;
32094;SDS011;18608;53.688;10.748;2023-01-08T05:42:34;4.83;;;3.97;;
32094;SDS011;18608;53.688;10.748;2023-01-08T05:45:01;3.67;;;2.90;;
32094;SDS011;18608;53.688;10.748;2023-01-08T05:47:28;3.73;;;3.33;;
32094;SDS011;18608;53.688;10.748;2023-01-08T05:49:54;3.70;;;3.07;;
32094;SDS011;18608;53.688;10.748;2023-01-08T05:52:20;3.70;;;3.37;;
32094;SDS011;18608;53.688;10.748;2023-01-08T05:54:46;7.00;;;3.10;;
32094;SDS011;18608;53.688;10.748;2023-01-08T05:57:11;3.30;;;3.00;;
32094;SDS011;18608;53.688;10.748;2023-01-08T05:59:37;7.37;;;3.57;;
32094;SDS011;18608;53.688;10.748;2023-01-08T06:02:03;4.33;;;2.80;;
32094;SDS011;18608;53.688;10.748;2023-01-08T06:04:28;3.90;;;3.50;;
32094;SDS011;18608;53.688;10.748;2023-01-08T06:06:54;3.93;;;3.50;;
32094;SDS011;18608;53.688;10.748;2023-01-08T06:09:20;4.73;;;3.80;;
32094;SDS011;18608;53.688;10.748;2023-01-08T06:11:45;5.00;;;4.33;;
32094;SDS011;18608;53.688;10.748;2023-01-08T06:14:11;4.20;;;3.80;;
32094;SDS011;18608;53.688;10.748;2023-01-08T06:16:38;3.10;;;2.90;;
32094;SDS011;18608;53.688;10.748;2023-01-08T06:19:04;7.03;;;4.00;;
32094;SDS011;18608;53.688;10.748;2023-01-08T06:21:29;4.30;;;3.67;;
32094;SDS011;18608;53.688;10.748;2023-01-08T06:23:55;3.90;;;3.60;;
32094;SDS011;18608;53.688;10.748;2023-01-08T06:26:20;3.33;;;3.03;;
32094;SDS011;18608;53.688;10.748;2023-01-08T06:28:46;4.00;;;3.47;;
32094;SDS011;18608;53.688;10.748;2023-01-08T06:31:12;5.57;;;3.17;;
32094;SDS011;18608;53.688;10.748;2023-01-08T06:33:38;4.00;;;3.70;;
32094;SDS011;18608;53.688;10.748;2023-01-08T06:36:04;3.50;;;3.10;;
32094;SDS011;18608;53.688;10.748;2023-01-08T06:38:31;5.10;;;3.80;;
32094;SDS011;18608;53.688;10.748;2023-01-08T06:40:57;4.07;;;3.23;;
32094;SDS011;18608;53.688;10.748;2023-01-08T06:43:27;6.33;;;4.07;;
32094;SDS011;18608;53.688;10.748;2023-01-08T06:45:53;4.40;;;3.53;;
32094;SDS011;18608;53.688;10.748;2023-01-08T06:48:19;5.67;;;3.90;;
32094;SDS011;18608;53.688;10.748;2023-01-08T06:50:45;3.37;;;3.13;;
32094;SDS011;18608;53.688;10.748;2023-01-08T06:53:10;3.93;;;3.63;;
32094;SDS011;18608;53.688;10.748;2023-01-08T06:55:36;4.30;;;3.70;;
32094;SDS011;18608;53.688;10.748;2023-01-08T06:58:02;6.07;;;3.47;;
32094;SDS011;18608;53.688;10.748;2023-01-08T07:00:27;4.20;;;3.80;;
32094;SDS011;18608;53.688;10.748;2023-01-08T07:02:53;3.60;;;3.30;;
32094;SDS011;18608;53.688;10.748;2023-01-08T07:05:19;5.47;;;4.27;;
32094;SDS011;18608;53.688;10.748;2023-01-08T07:07:45;4.00;;;3.60;;
32094;SDS011;18608;53.688;10.748;2023-01-08T07:10:11;4.13;;;3.70;;
32094;SDS011;18608;53.688;10.748;2023-01-08T07:12:36;5.10;;;4.27;;
32094;SDS011;18608;53.688;10.748;2023-01-08T07:15:02;5.90;;;3.93;;
32094;SDS011;18608;53.688;10.748;2023-01-08T07:17:28;3.77;;;2.87;;
32094;SDS011;18608;53.688;10.748;2023-01-08T07:19:56;4.30;;;3.57;;
32094;SDS011;18608;53.688;10.748;2023-01-08T07:22:22;3.77;;;3.47;;
32094;SDS011;18608;53.688;10.748;2023-01-08T07:24:49;5.10;;;3.30;;
32094;SDS011;18608;53.688;10.748;2023-01-08T07:27:15;4.33;;;3.80;;
32094;SDS011;18608;53.688;10.748;2023-01-08T07:29:41;4.77;;;3.40;;
32094;SDS011;18608;53.688;10.748;2023-01-08T07:32:06;3.77;;;3.37;;
32094;SDS011;18608;53.688;10.748;2023-01-08T07:34:32;4.43;;;3.20;;
32094;SDS011;18608;53.688;10.748;2023-01-08T07:36:58;4.90;;;3.57;;
32094;SDS011;18608;53.688;10.748;2023-01-08T07:39:24;3.90;;;3.40;;
32094;SDS011;18608;53.688;10.748;2023-01-08T07:41:50;8.73;;;3.70;;
32094;SDS011;18608;53.688;10.748;2023-01-08T07:44:16;5.43;;;4.30;;
32094;SDS011;18608;53.688;10.748;2023-01-08T07:46:41;3.37;;;2.87;;
32094;SDS011;18608;53.688;10.748;2023-01-08T07:49:07;4.43;;;4.10;;
32094;SDS011;18608;53.688;10.748;2023-01-08T07:51:33;4.90;;;3.80;;
32094;SDS011;18608;53.688;10.748;2023-01-08T07:53:58;5.03;;;3.17;;
32094;SDS011;18608;53.688;10.748;2023-01-08T07:56:25;3.20;;;3.00;;
32094;SDS011;18608;53.688;10.748;2023-01-08T07:58:50;3.57;;;3.23;;
32094;SDS011;18608;53.688;10.748;2023-01-08T08:01:16;4.03;;;3.63;;
32094;SDS011;18608;53.688;10.748;2023-01-08T08:03:42;3.57;;;2.90;;
32094;SDS011;18608;53.688;10.748;2023-01-08T08:06:08;5.90;;;4.20;;
32094;SDS011;18608;53.688;10.748;2023-01-08T08:08:34;3.90;;;3.47;;
32094;SDS011;18608;53.688;10.748;2023-01-08T08:11:00;3.93;;;3.60;;
32094;SDS011;18608;53.688;10.748;2023-01-08T08:13:25;4.20;;;3.60;;
32094;SDS011;18608;53.688;10.748;2023-01-08T08:15:51;5.17;;;4.10;;
32094;SDS011;18608;53.688;10.748;2023-01-08T08:18:17;17.63;;;5.30;;
32094;SDS011;18608;53.688;10.748;2023-01-08T08:20:43;5.60;;;4.50;;
32094;SDS011;18608;53.688;10.748;2023-01-08T08:23:10;4.83;;;3.83;;
32094;SDS011;18608;53.688;10.748;2023-01-08T08:25:38;4.13;;;3.70;;
32094;SDS011;18608;53.688;10.748;2023-01-08T08:28:05;4.40;;;3.43;;
32094;SDS011;18608;53.688;10.748;2023-01-08T08:30:32;3.87;;;3.53;;
32094;SDS011;18608;53.688;10.748;2023-01-08T08:32:59;6.30;;;4.17;;
32094;SDS011;18608;53.688;10.748;2023-01-08T08:35:25;7.17;;;4.10;;
32094;SDS011;18608;53.688;10.748;2023-01-08T08:37:52;4.77;;;4.37;;
32094;SDS011;18608;53.688;10.748;2023-01-08T08:40:18;5.60;;;4.30;;
32094;SDS011;18608;53.688;10.748;2023-01-08T08:42:43;5.03;;;4.20;;
32094;SDS011;18608;53.688;10.748;2023-01-08T08:45:09;7.10;;;5.60;;
32094;SDS011;18608;53.688;10.748;2023-01-08T08:47:35;5.87;;;4.63;;
32094;SDS011;18608;53.688;10.748;2023-01-08T08:50:01;6.80;;;4.23;;
32094;SDS011;18608;53.688;10.748;2023-01-08T08:52:28;5.40;;;4.90;;
32094;SDS011;18608;53.688;10.748;2023-01-08T08:54:54;6.77;;;4.67;;
32094;SDS011;18608;53.688;10.748;2023-01-08T08:57:21;4.53;;;4.10;;
32094;SDS011;18608;53.688;10.748;2023-01-08T08:59:47;5.27;;;4.53;;
32094;SDS011;18608;53.688;10.748;2023-01-08T09:02:13;7.57;;;5.23;;
32094;SDS011;18608;53.688;10.748;2023-01-08T09:04:38;8.23;;;4.70;;
32094;SDS011;18608;53.688;10.748;2023-01-08T09:07:04;5.60;;;4.60;;
32094;SDS011;18608;53.688;10.748;2023-01-08T09:09:30;5.83;;;5.27;;
32094;SDS011;18608;53.688;10.748;2023-01-08T09:11:55;5.47;;;4.57;;
32094;SDS011;18608;53.688;10.748;2023-01-08T09:14:21;5.17;;;4.30;;
32094;SDS011;18608;53.688;10.748;2023-01-08T09:16:47;6.63;;;5.53;;
32094;SDS011;18608;53.688;10.748;2023-01-08T09:19:13;7.20;;;5.07;;
32094;SDS011;18608;53.688;10.748;2023-01-08T09:21:38;10.97;;;5.20;;
32094;SDS011;18608;53.688;10.748;2023-01-08T09:24:04;7.07;;;5.00;;
32094;SDS011;18608;53.688;10.748;2023-01-08T09:26:30;6.10;;;4.73;;
32094;SDS011;18608;53.688;10.748;2023-01-08T09:28:57;6.67;;;4.90;;
32094;SDS011;18608;53.688;10.748;2023-01-08T09:31:23;10.90;;;7.80;;
32094;SDS011;18608;53.688;10.748;2023-01-08T09:33:49;6.00;;;4.47;;
32094;SDS011;18608;53.688;10.748;2023-01-08T09:36:15;4.70;;;4.27;;
32094;SDS011;18608;53.688;10.748;2023-01-08T09:38:41;5.70;;;5.20;;
32094;SDS011;18608;53.688;10.748;2023-01-08T09:41:11;9.80;;;5.60;;
32094;SDS011;18608;53.688;10.748;2023-01-08T09:43:43;8.97;;;5.70;;
32094;SDS011;18608;53.688;10.748;2023-01-08T09:46:11;8.13;;;5.63;;
32094;SDS011;18608;53.688;10.748;2023-01-08T09:48:37;7.60;;;5.70;;
32094;SDS011;18608;53.688;10.748;2023-01-08T09:51:15;7.90;;;5.27;;
32094;SDS011;18608;53.688;10.748;2023-01-08T09:53:42;6.73;;;5.37;;
32094;SDS011;18608;53.688;10.748;2023-01-08T09:56:12;15.37;;;6.40;;
32094;SDS011;18608;53.688;10.748;2023-01-08T09:58:43;7.10;;;5.27;;
32094;SDS011;18608;53.688;10.748;2023-01-08T10:01:30;7.63;;;5.50;;
32094;SDS011;18608;53.688;10.748;2023-01-08T10:04:20;7.33;;;5.93;;
32094;SDS011;18608;53.688;10.748;2023-01-08T10:06:52;6.07;;;5.47;;
32094;SDS011;18608;53.688;10.748;2023-01-08T10:09:27;5.20;;;4.80;;
32094;SDS011;18608;53.688;10.748;2023-01-08T10:11:55;6.07;;;5.47;;
32094;SDS011;18608;53.688;10.748;2023-01-08T10:14:25;6.47;;;5.33;;
32094;SDS011;18608;53.688;10.748;2023-01-08T10:16:55;8.23;;;5.93;;
32094;SDS011;18608;53.688;10.748;2023-01-08T10:19:26;7.03;;;6.27;;
32094;SDS011;18608;53.688;10.748;2023-01-08T10:21:52;7.60;;;5.57;;
32094;SDS011;18608;53.688;10.748;2023-01-08T10:24:34;9.23;;;6.93;;
32094;SDS011;18608;53.688;10.748;2023-01-08T10:27:09;10.10;;;6.30;;
32094;SDS011;18608;53.688;10.748;2023-01-08T10:29:39;8.77;;;5.80;;
32094;SDS011;18608;53.688;10.748;2023-01-08T10:32:11;11.80;;;8.17;;
32094;SDS011;18608;53.688;10.748;2023-01-08T10:34:48;11.07;;;7.20;;
32094;SDS011;18608;53.688;10.748;2023-01-08T10:37:49;7.80;;;6.60;;
32094;SDS011;18608;53.688;10.748;2023-01-08T10:40:26;9.50;;;5.60;;
32094;SDS011;18608;53.688;10.748;2023-01-08T10:43:04;7.67;;;5.90;;
32094;SDS011;18608;53.688;10.748;2023-01-08T10:45:33;7.07;;;6.20;;
32094;SDS011;18608;53.688;10.748;2023-01-08T10:47:59;7.47;;;6.30;;
32094;SDS011;18608;53.688;10.748;2023-01-08T10:50:29;6.73;;;5.97;;
32094;SDS011;18608;53.688;10.748;2023-01-08T10:53:16;10.67;;;7.60;;
32094;SDS011;18608;53.688;10.748;2023-01-08T10:58:49;8.40;;;6.10;;
32094;SDS011;18608;53.688;10.748;2023-01-08T11:03:47;8.27;;;5.33;;
32094;SDS011;18608;53.688;10.748;2023-01-08T11:06:19;7.20;;;6.30;;
32094;SDS011;18608;53.688;10.748;2023-01-08T11:08:55;8.20;;;6.30;;
32094;SDS011;18608;53.688;10.748;2023-01-08T11:11:23;8.47;;;5.40;;
32094;SDS011;18608;53.688;10.748;2023-01-08T11:13:59;9.83;;;5.13;;
32094;SDS011;18608;53.688;10.748;2023-01-08T11:16:33;7.93;;;5.57;;
32094;SDS011;18608;53.688;10.748;2023-01-08T11:19:01;7.20;;;6.50;;
32094;SDS011;18608;53.688;10.748;2023-01-08T11:21:29;7.23;;;5.30;;
32094;SDS011;18608;53.688;10.748;2023-01-08T11:24:00;9.40;;;5.80;;
32094;SDS011;18608;53.688;10.748;2023-01-08T11:26:28;8.53;;;5.67;;
32094;SDS011;18608;53.688;10.748;2023-01-08T11:28:59;6.90;;;5.83;;
32094;SDS011;18608;53.688;10.748;2023-01-08T11:31:38;6.17;;;5.57;;
32094;SDS011;18608;53.688;10.748;2023-01-08T11:34:29;5.30;;;4.80;;
32094;SDS011;18608;53.688;10.748;2023-01-08T11:37:04;7.40;;;4.93;;
32094;SDS011;18608;53.688;10.748;2023-01-08T11:39:50;7.07;;;5.73;;
32094;SDS011;18608;53.688;10.748;2023-01-08T11:42:37;5.80;;;4.63;;
32094;SDS011;18608;53.688;10.748;2023-01-08T11:53:30;6.17;;;5.03;;
32094;SDS011;18608;53.688;10.748;2023-01-08T12:06:48;4.40;;;4.00;;
32094;SDS011;18608;53.688;10.748;2023-01-08T12:16:00;6.23;;;5.00;;
32094;SDS011;18608;53.688;10.748;2023-01-08T12:18:34;4.70;;;4.30;;
32094;SDS011;18608;53.688;10.748;2023-01-08T12:21:25;7.03;;;5.60;;
32094;SDS011;18608;53.688;10.748;2023-01-08T12:26:23;4.53;;;4.10;;
32094;SDS011;18608;53.688;10.748;2023-01-08T12:34:37;7.53;;;4.00;;
32094;SDS011;18608;53.688;10.748;2023-01-08T12:37:51;6.10;;;4.43;;
32094;SDS011;18608;53.688;10.748;2023-01-08T12:40:16;5.20;;;4.70;;
32094;SDS011;18608;53.688;10.748;2023-01-08T12:42:46;4.07;;;3.77;;
32094;SDS011;18608;53.688;10.748;2023-01-08T12:45:55;5.97;;;4.70;;
32094;SDS011;18608;53.688;10.748;2023-01-08T12:56:10;5.80;;;4.20;;
32094;SDS011;18608;53.688;10.748;2023-01-08T13:04:00;7.83;;;5.73;;
32094;SDS011;18608;53.688;10.748;2023-01-08T13:06:28;11.57;;;8.83;;
32094;SDS011;18608;53.688;10.748;2023-01-08T13:08:55;7.70;;;4.47;;
32094;SDS011;18608;53.688;10.748;2023-01-08T13:11:29;6.23;;;4.07;;
32094;SDS011;18608;53.688;10.748;2023-01-08T13:14:01;9.13;;;7.00;;
32094;SDS011;18608;53.688;10.748;2023-01-08T13:16:27;9.33;;;5.13;;
32094;SDS011;18608;53.688;10.748;2023-01-08T13:18:54;17.70;;;10.93;;
32094;SDS011;18608;53.688;10.748;2023-01-08T13:21:31;9.50;;;6.87;;
32094;SDS011;18608;53.688;10.748;2023-01-08T13:24:20;4.30;;;3.10;;
32094;SDS011;18608;53.688;10.748;2023-01-08T13:26:56;4.70;;;4.40;;
32094;SDS011;18608;53.688;10.748;2023-01-08T13:29:46;4.60;;;4.10;;
32094;SDS011;18608;53.688;10.748;2023-01-08T13:32:23;3.83;;;3.50;;
32094;SDS011;18608;53.688;10.748;2023-01-08T13:34:59;3.90;;;3.60;;
32094;SDS011;18608;53.688;10.748;2023-01-08T13:37:26;3.87;;;3.47;;
32094;SDS011;18608;53.688;10.748;2023-01-08T13:39:52;3.43;;;3.13;;
32094;SDS011;18608;53.688;10.748;2023-01-08T13:42:22;4.43;;;4.00;;
32094;SDS011;18608;53.688;10.748;2023-01-08T13:44:56;3.43;;;3.10;;
32094;SDS011;18608;53.688;10.748;2023-01-08T13:47:30;4.03;;;3.70;;
32094;SDS011;18608;53.688;10.748;2023-01-08T13:49:59;7.33;;;3.63;;
32094;SDS011;18608;53.688;10.748;2023-01-08T13:55:04;3.40;;;3.10;;
32094;SDS011;18608;53.688;10.748;2023-01-08T13:57:38;6.73;;;3.30;;
32094;SDS011;18608;53.688;10.748;2023-01-08T14:00:08;3.83;;;3.53;;
32094;SDS011;18608;53.688;10.748;2023-01-08T14:02:43;3.50;;;3.20;;
32094;SDS011;18608;53.688;10.748;2023-01-08T14:07:50;3.90;;;3.60;;
32094;SDS011;18608;53.688;10.748;2023-01-08T14:10:16;6.00;;;3.10;;
32094;SDS011;18608;53.688;10.748;2023-01-08T14:12:42;4.90;;;4.50;;
32094;SDS011;18608;53.688;10.748;2023-01-08T14:15:15;9.03;;;2.43;;
32094;SDS011;18608;53.688;10.748;2023-01-08T14:17:45;4.43;;;3.10;;
32094;SDS011;18608;53.688;10.748;2023-01-08T14:20:11;3.17;;;2.87;;
32094;SDS011;18608;53.688;10.748;2023-01-08T14:22:37;3.10;;;2.80;;
32094;SDS011;18608;53.688;10.748;2023-01-08T14:25:06;4.30;;;3.50;;
32094;SDS011;18608;53.688;10.748;2023-01-08T14:27:32;3.30;;;2.57;;
32094;SDS011;18608;53.688;10.748;2023-01-08T14:29:59;3.47;;;2.13;;
32094;SDS011;18608;53.688;10.748;2023-01-08T14:32:25;2.57;;;2.07;;
32094;SDS011;18608;53.688;10.748;2023-01-08T14:34:57;2.27;;;2.13;;
32094;SDS011;18608;53.688;10.748;2023-01-08T14:37:28;1.83;;;1.73;;
32094;SDS011;18608;53.688;10.748;2023-01-08T14:39:54;2.10;;;2.00;;
32094;SDS011;18608;53.688;10.748;2023-01-08T14:42:24;2.70;;;2.40;;
32094;SDS011;18608;53.688;10.748;2023-01-08T14:48:00;2.70;;;2.50;;
32094;SDS011;18608;53.688;10.748;2023-01-08T14:50:35;2.30;;;1.73;;
32094;SDS011;18608;53.688;10.748;2023-01-08T14:53:04;1.50;;;1.40;;
32094;SDS011;18608;53.688;10.748;2023-01-08T14:55:40;2.80;;;1.77;;
32094;SDS011;18608;53.688;10.748;2023-01-08T14:58:11;1.50;;;1.40;;
32094;SDS011;18608;53.688;10.748;2023-01-08T15:00:40;2.13;;;1.70;;
32094;SDS011;18608;53.688;10.748;2023-01-08T15:03:21;7.60;;;1.43;;
32094;SDS011;18608;53.688;10.748;2023-01-08T15:05:55;1.83;;;1.60;;
32094;SDS011;18608;53.688;10.748;2023-01-08T15:13:39;3.00;;;1.70;;
32094;SDS011;18608;53.688;10.748;2023-01-08T15:16:06;1.50;;;1.40;;
32094;SDS011;18608;53.688;10.748;2023-01-08T15:18:42;7.13;;;1.53;;
32094;SDS011;18608;53.688;10.748;2023-01-08T15:21:14;2.27;;;2.07;;
32094;SDS011;18608;53.688;10.748;2023-01-08T15:23:48;2.20;;;2.00;;
32094;SDS011;18608;53.688;10.748;2023-01-08T15:26:16;2.77;;;2.57;;
32094;SDS011;18608;53.688;10.748;2023-01-08T15:28:43;3.50;;;1.93;;
32094;SDS011;18608;53.688;10.748;2023-01-08T15:31:21;1.40;;;1.30;;
32094;SDS011;18608;53.688;10.748;2023-01-08T15:33:48;2.87;;;1.70;;
32094;SDS011;18608;53.688;10.748;2023-01-08T15:36:13;2.60;;;1.50;;
32094;SDS011;18608;53.688;10.748;2023-01-08T15:38:39;2.00;;;1.83;;
32094;SDS011;18608;53.688;10.748;2023-01-08T15:41:04;7.93;;;2.10;;
32094;SDS011;18608;53.688;10.748;2023-01-08T15:43:33;2.00;;;1.80;;
32094;SDS011;18608;53.688;10.748;2023-01-08T15:45:58;8.57;;;2.57;;
32094;SDS011;18608;53.688;10.748;2023-01-08T15:48:24;3.50;;;1.27;;
32094;SDS011;18608;53.688;10.748;2023-01-08T15:50:49;1.97;;;1.30;;
32094;SDS011;18608;53.688;10.748;2023-01-08T15:53:18;1.30;;;1.30;;
32094;SDS011;18608;53.688;10.748;2023-01-08T15:55:46;1.60;;;1.30;;
32094;SDS011;18608;53.688;10.748;2023-01-08T15:58:12;4.00;;;1.40;;
32094;SDS011;18608;53.688;10.748;2023-01-08T16:00:40;3.83;;;1.20;;
32094;SDS011;18608;53.688;10.748;2023-01-08T16:03:06;1.60;;;1.50;;
32094;SDS011;18608;53.688;10.748;2023-01-08T16:05:32;1.53;;;1.37;;
32094;SDS011;18608;53.688;10.748;2023-01-08T16:07:59;6.30;;;2.57;;
32094;SDS011;18608;53.688;10.748;2023-01-08T16:10:24;1.50;;;1.40;;
32094;SDS011;18608;53.688;10.748;2023-01-08T16:12:50;4.10;;;1.80;;